sensor_id;sensor_type;location;lat;lon;timestamp;P1;durP1;ratioP1;P2;durP2;ratioP2
54849;SDS011;47660;51.334;12.396;2023-04-03T00:00:08;2.13;;;1.02;;
54849;SDS011;47660;51.334;12.396;2023-04-03T00:02:35;0.43;;;0.28;;
54849;SDS011;47660;51.334;12.396;2023-04-03T00:05:00;2.95;;;0.70;;
54849;SDS011;47660;51.334;12.396;2023-04-03T00:07:25;0.50;;;0.50;;
54849;SDS011;47660;51.334;12.396;2023-04-03T00:09:51;1.67;;;0.57;;
54849;SDS011;47660;51.334;12.396;2023-04-03T00:12:16;3.80;;;0.70;;
54849;SDS011;47660;51.334;12.396;2023-04-03T00:14:42;0.90;;;0.50;;
54849;SDS011;47660;51.334;12.396;2023-04-03T00:17:07;1.15;;;0.70;;
54849;SDS011;47660;51.334;12.396;2023-04-03T00:19:35;6.32;;;0.70;;
54849;SDS011;47660;51.334;12.396;2023-04-03T00:22:00;0.90;;;0.68;;
54849;SDS011;47660;51.334;12.396;2023-04-03T00:24:26;1.75;;;0.88;;
54849;SDS011;47660;51.334;12.396;2023-04-03T00:26:52;0.68;;;0.30;;
54849;SDS011;47660;51.334;12.396;2023-04-03T00:29:22;2.92;;;0.52;;
54849;SDS011;47660;51.334;12.396;2023-04-03T00:31:47;0.80;;;0.45;;
54849;SDS011;47660;51.334;12.396;2023-04-03T00:34:15;1.65;;;0.30;;
54849;SDS011;47660;51.334;12.396;2023-04-03T00:36:44;1.38;;;0.45;;
54849;SDS011;47660;51.334;12.396;2023-04-03T00:39:10;1.10;;;0.30;;
54849;SDS011;47660;51.334;12.396;2023-04-03T00:41:35;4.25;;;0.55;;
54849;SDS011;47660;51.334;12.396;2023-04-03T00:44:16;0.70;;;0.22;;
54849;SDS011;47660;51.334;12.396;2023-04-03T00:49:36;1.52;;;0.82;;
54849;SDS011;47660;51.334;12.396;2023-04-03T00:52:03;3.67;;;0.52;;
54849;SDS011;47660;51.334;12.396;2023-04-03T00:54:31;0.20;;;0.20;;
54849;SDS011;47660;51.334;12.396;2023-04-03T00:57:00;1.33;;;0.63;;
54849;SDS011;47660;51.334;12.396;2023-04-03T00:59:27;0.70;;;0.40;;
54849;SDS011;47660;51.334;12.396;2023-04-03T01:02:00;0.57;;;0.40;;
54849;SDS011;47660;51.334;12.396;2023-04-03T01:04:28;0.95;;;0.38;;
54849;SDS011;47660;51.334;12.396;2023-04-03T01:06:56;1.80;;;0.43;;
54849;SDS011;47660;51.334;12.396;2023-04-03T01:09:26;0.40;;;0.38;;
54849;SDS011;47660;51.334;12.396;2023-04-03T01:11:52;1.85;;;0.60;;
54849;SDS011;47660;51.334;12.396;2023-04-03T01:14:20;4.97;;;1.08;;
54849;SDS011;47660;51.334;12.396;2023-04-03T01:17:24;0.60;;;0.30;;
54849;SDS011;47660;51.334;12.396;2023-04-03T01:19:53;1.38;;;0.60;;
54849;SDS011;47660;51.334;12.396;2023-04-03T01:25:26;0.15;;;0.15;;
54849;SDS011;47660;51.334;12.396;2023-04-03T01:27:52;0.52;;;0.40;;
54849;SDS011;47660;51.334;12.396;2023-04-03T01:30:19;0.10;;;0.10;;
54849;SDS011;47660;51.334;12.396;2023-04-03T01:32:48;0.17;;;0.17;;
54849;SDS011;47660;51.334;12.396;2023-04-03T01:35:14;0.40;;;0.40;;
54849;SDS011;47660;51.334;12.396;2023-04-03T01:37:39;4.32;;;0.45;;
54849;SDS011;47660;51.334;12.396;2023-04-03T01:40:07;0.40;;;0.40;;
54849;SDS011;47660;51.334;12.396;2023-04-03T01:42:33;1.20;;;0.45;;
54849;SDS011;47660;51.334;12.396;2023-04-03T01:44:59;1.10;;;0.52;;
54849;SDS011;47660;51.334;12.396;2023-04-03T01:47:24;0.38;;;0.38;;
54849;SDS011;47660;51.334;12.396;2023-04-03T01:49:50;1.02;;;0.60;;
54849;SDS011;47660;51.334;12.396;2023-04-03T01:52:15;3.88;;;0.52;;
54849;SDS011;47660;51.334;12.396;2023-04-03T01:54:41;0.77;;;0.47;;
54849;SDS011;47660;51.334;12.396;2023-04-03T01:57:06;0.98;;;0.55;;
54849;SDS011;47660;51.334;12.396;2023-04-03T01:59:34;2.33;;;1.23;;
54849;SDS011;47660;51.334;12.396;2023-04-03T02:02:01;2.65;;;0.28;;
54849;SDS011;47660;51.334;12.396;2023-04-03T02:04:26;8.68;;;0.65;;
54849;SDS011;47660;51.334;12.396;2023-04-03T02:06:52;3.08;;;0.73;;
54849;SDS011;47660;51.334;12.396;2023-04-03T02:09:17;0.82;;;0.77;;
54849;SDS011;47660;51.334;12.396;2023-04-03T02:11:43;0.82;;;0.50;;
54849;SDS011;47660;51.334;12.396;2023-04-03T02:14:08;1.45;;;1.13;;
54849;SDS011;47660;51.334;12.396;2023-04-03T02:16:34;4.22;;;0.77;;
54849;SDS011;47660;51.334;12.396;2023-04-03T02:18:59;4.65;;;0.73;;
54849;SDS011;47660;51.334;12.396;2023-04-03T02:21:24;1.25;;;0.73;;
54849;SDS011;47660;51.334;12.396;2023-04-03T02:23:52;1.15;;;0.30;;
54849;SDS011;47660;51.334;12.396;2023-04-03T02:26:18;1.45;;;0.80;;
54849;SDS011;47660;51.334;12.396;2023-04-03T02:28:46;3.65;;;0.45;;
54849;SDS011;47660;51.334;12.396;2023-04-03T02:31:11;1.92;;;1.05;;
54849;SDS011;47660;51.334;12.396;2023-04-03T02:33:37;0.55;;;0.50;;
54849;SDS011;47660;51.334;12.396;2023-04-03T02:36:06;2.92;;;0.90;;
54849;SDS011;47660;51.334;12.396;2023-04-03T02:38:32;0.77;;;0.63;;
54849;SDS011;47660;51.334;12.396;2023-04-03T02:41:05;0.40;;;0.20;;
54849;SDS011;47660;51.334;12.396;2023-04-03T02:43:33;5.80;;;0.85;;
54849;SDS011;47660;51.334;12.396;2023-04-03T02:45:59;0.32;;;0.32;;
54849;SDS011;47660;51.334;12.396;2023-04-03T02:48:25;0.15;;;0.15;;
54849;SDS011;47660;51.334;12.396;2023-04-03T02:50:51;4.63;;;0.68;;
54849;SDS011;47660;51.334;12.396;2023-04-03T02:53:17;0.73;;;0.70;;
54849;SDS011;47660;51.334;12.396;2023-04-03T02:55:43;1.42;;;0.32;;
54849;SDS011;47660;51.334;12.396;2023-04-03T02:58:09;0.57;;;0.22;;
54849;SDS011;47660;51.334;12.396;2023-04-03T03:00:37;0.77;;;0.73;;
54849;SDS011;47660;51.334;12.396;2023-04-03T03:03:03;1.10;;;0.70;;
54849;SDS011;47660;51.334;12.396;2023-04-03T03:05:29;1.50;;;0.50;;
54849;SDS011;47660;51.334;12.396;2023-04-03T03:07:55;0.45;;;0.20;;
54849;SDS011;47660;51.334;12.396;2023-04-03T03:10:21;0.50;;;0.30;;
54849;SDS011;47660;51.334;12.396;2023-04-03T03:12:48;1.23;;;0.70;;
54849;SDS011;47660;51.334;12.396;2023-04-03T03:15:13;1.40;;;0.50;;
54849;SDS011;47660;51.334;12.396;2023-04-03T03:17:40;0.20;;;0.20;;
54849;SDS011;47660;51.334;12.396;2023-04-03T03:20:06;0.40;;;0.40;;
54849;SDS011;47660;51.334;12.396;2023-04-03T03:22:33;5.13;;;0.60;;
54849;SDS011;47660;51.334;12.396;2023-04-03T03:25:01;0.70;;;0.50;;
54849;SDS011;47660;51.334;12.396;2023-04-03T03:27:28;2.72;;;0.63;;
54849;SDS011;47660;51.334;12.396;2023-04-03T03:29:53;0.30;;;0.30;;
54849;SDS011;47660;51.334;12.396;2023-04-03T03:32:18;0.88;;;0.40;;
54849;SDS011;47660;51.334;12.396;2023-04-03T03:34:44;1.35;;;0.68;;
54849;SDS011;47660;51.334;12.396;2023-04-03T03:37:09;7.13;;;0.82;;
54849;SDS011;47660;51.334;12.396;2023-04-03T03:39:35;1.38;;;0.80;;
54849;SDS011;47660;51.334;12.396;2023-04-03T03:42:02;1.80;;;0.55;;
54849;SDS011;47660;51.334;12.396;2023-04-03T03:44:28;1.38;;;0.75;;
54849;SDS011;47660;51.334;12.396;2023-04-03T03:46:54;0.47;;;0.40;;
54849;SDS011;47660;51.334;12.396;2023-04-03T03:49:20;0.65;;;0.38;;
54849;SDS011;47660;51.334;12.396;2023-04-03T03:51:46;2.33;;;0.73;;
54849;SDS011;47660;51.334;12.396;2023-04-03T03:54:11;0.70;;;0.32;;
54849;SDS011;47660;51.334;12.396;2023-04-03T03:56:37;2.45;;;0.43;;
54849;SDS011;47660;51.334;12.396;2023-04-03T03:59:05;3.20;;;0.90;;
54849;SDS011;47660;51.334;12.396;2023-04-03T04:01:31;1.02;;;0.25;;
54849;SDS011;47660;51.334;12.396;2023-04-03T04:03:59;0.82;;;0.60;;
54849;SDS011;47660;51.334;12.396;2023-04-03T04:06:24;1.08;;;0.55;;
54849;SDS011;47660;51.334;12.396;2023-04-03T04:08:54;5.13;;;1.08;;
54849;SDS011;47660;51.334;12.396;2023-04-03T04:11:22;0.55;;;0.40;;
54849;SDS011;47660;51.334;12.396;2023-04-03T04:13:47;0.57;;;0.43;;
54849;SDS011;47660;51.334;12.396;2023-04-03T04:16:13;3.08;;;1.02;;
54849;SDS011;47660;51.334;12.396;2023-04-03T04:18:38;1.20;;;0.85;;
54849;SDS011;47660;51.334;12.396;2023-04-03T04:21:04;0.98;;;0.47;;
54849;SDS011;47660;51.334;12.396;2023-04-03T04:23:29;3.80;;;0.85;;
54849;SDS011;47660;51.334;12.396;2023-04-03T04:25:55;7.18;;;0.93;;
54849;SDS011;47660;51.334;12.396;2023-04-03T04:28:28;0.25;;;0.25;;
54849;SDS011;47660;51.334;12.396;2023-04-03T04:30:59;6.68;;;0.90;;
54849;SDS011;47660;51.334;12.396;2023-04-03T04:33:24;8.38;;;4.97;;
54849;SDS011;47660;51.334;12.396;2023-04-03T04:35:50;8.32;;;1.55;;
54849;SDS011;47660;51.334;12.396;2023-04-03T04:38:18;2.33;;;0.95;;
54849;SDS011;47660;51.334;12.396;2023-04-03T04:40:43;0.60;;;0.30;;
54849;SDS011;47660;51.334;12.396;2023-04-03T04:43:09;0.98;;;0.50;;
54849;SDS011;47660;51.334;12.396;2023-04-03T04:45:36;2.65;;;1.00;;
54849;SDS011;47660;51.334;12.396;2023-04-03T04:48:04;0.32;;;0.32;;
54849;SDS011;47660;51.334;12.396;2023-04-03T04:50:32;3.20;;;0.95;;
54849;SDS011;47660;51.334;12.396;2023-04-03T04:53:00;1.23;;;0.47;;
54849;SDS011;47660;51.334;12.396;2023-04-03T04:55:26;0.73;;;0.25;;
54849;SDS011;47660;51.334;12.396;2023-04-03T04:57:55;0.80;;;0.80;;
54849;SDS011;47660;51.334;12.396;2023-04-03T05:00:20;4.50;;;0.98;;
54849;SDS011;47660;51.334;12.396;2023-04-03T05:02:46;6.55;;;0.60;;
54849;SDS011;47660;51.334;12.396;2023-04-03T05:05:11;1.17;;;0.50;;
54849;SDS011;47660;51.334;12.396;2023-04-03T05:07:37;0.70;;;0.40;;
54849;SDS011;47660;51.334;12.396;2023-04-03T05:10:02;0.20;;;0.17;;
54849;SDS011;47660;51.334;12.396;2023-04-03T05:12:31;3.90;;;0.82;;
54849;SDS011;47660;51.334;12.396;2023-04-03T05:14:57;0.52;;;0.50;;
54849;SDS011;47660;51.334;12.396;2023-04-03T05:17:22;1.02;;;0.43;;
54849;SDS011;47660;51.334;12.396;2023-04-03T05:19:48;2.00;;;1.10;;
54849;SDS011;47660;51.334;12.396;2023-04-03T05:22:13;5.10;;;1.45;;
54849;SDS011;47660;51.334;12.396;2023-04-03T05:24:41;2.38;;;1.38;;
54849;SDS011;47660;51.334;12.396;2023-04-03T05:27:06;0.77;;;0.75;;
54849;SDS011;47660;51.334;12.396;2023-04-03T05:29:32;0.73;;;0.47;;
54849;SDS011;47660;51.334;12.396;2023-04-03T05:31:57;1.58;;;0.77;;
54849;SDS011;47660;51.334;12.396;2023-04-03T05:34:23;1.30;;;0.75;;
54849;SDS011;47660;51.334;12.396;2023-04-03T05:36:51;2.28;;;0.68;;
54849;SDS011;47660;51.334;12.396;2023-04-03T05:39:21;0.30;;;0.30;;
54849;SDS011;47660;51.334;12.396;2023-04-03T05:41:47;0.55;;;0.55;;
54849;SDS011;47660;51.334;12.396;2023-04-03T05:44:13;4.45;;;0.82;;
54849;SDS011;47660;51.334;12.396;2023-04-03T05:46:39;1.65;;;0.63;;
54849;SDS011;47660;51.334;12.396;2023-04-03T05:49:05;0.40;;;0.40;;
54849;SDS011;47660;51.334;12.396;2023-04-03T05:51:32;0.80;;;0.25;;
54849;SDS011;47660;51.334;12.396;2023-04-03T05:54:20;0.20;;;0.20;;
54849;SDS011;47660;51.334;12.396;2023-04-03T05:56:49;0.77;;;0.50;;
54849;SDS011;47660;51.334;12.396;2023-04-03T05:59:15;1.23;;;0.40;;
54849;SDS011;47660;51.334;12.396;2023-04-03T06:01:41;0.85;;;0.63;;
54849;SDS011;47660;51.334;12.396;2023-04-03T06:04:07;0.98;;;0.80;;
54849;SDS011;47660;51.334;12.396;2023-04-03T06:09:16;2.13;;;0.85;;
54849;SDS011;47660;51.334;12.396;2023-04-03T06:11:43;1.02;;;0.45;;
54849;SDS011;47660;51.334;12.396;2023-04-03T06:14:08;0.47;;;0.32;;
54849;SDS011;47660;51.334;12.396;2023-04-03T06:16:37;3.92;;;0.85;;
54849;SDS011;47660;51.334;12.396;2023-04-03T06:19:03;1.17;;;0.60;;
54849;SDS011;47660;51.334;12.396;2023-04-03T06:21:29;2.10;;;0.65;;
54849;SDS011;47660;51.334;12.396;2023-04-03T06:23:55;0.10;;;0.10;;
54849;SDS011;47660;51.334;12.396;2023-04-03T06:26:20;0.85;;;0.55;;
54849;SDS011;47660;51.334;12.396;2023-04-03T06:28:50;0.60;;;0.30;;
54849;SDS011;47660;51.334;12.396;2023-04-03T06:31:16;1.98;;;0.60;;
54849;SDS011;47660;51.334;12.396;2023-04-03T06:33:46;1.85;;;0.60;;
54849;SDS011;47660;51.334;12.396;2023-04-03T06:36:11;2.17;;;0.32;;
54849;SDS011;47660;51.334;12.396;2023-04-03T06:38:37;0.43;;;0.28;;
54849;SDS011;47660;51.334;12.396;2023-04-03T06:41:02;0.73;;;0.50;;
54849;SDS011;47660;51.334;12.396;2023-04-03T06:43:28;0.35;;;0.35;;
54849;SDS011;47660;51.334;12.396;2023-04-03T06:45:53;2.05;;;1.20;;
54849;SDS011;47660;51.334;12.396;2023-04-03T06:48:19;0.70;;;0.30;;
54849;SDS011;47660;51.334;12.396;2023-04-03T06:50:46;5.88;;;0.80;;
54849;SDS011;47660;51.334;12.396;2023-04-03T06:53:16;1.95;;;0.77;;
54849;SDS011;47660;51.334;12.396;2023-04-03T06:55:42;0.45;;;0.40;;
54849;SDS011;47660;51.334;12.396;2023-04-03T06:58:07;1.75;;;0.70;;
54849;SDS011;47660;51.334;12.396;2023-04-03T07:00:33;1.45;;;0.60;;
54849;SDS011;47660;51.334;12.396;2023-04-03T07:02:59;2.28;;;0.60;;
54849;SDS011;47660;51.334;12.396;2023-04-03T07:05:24;1.27;;;0.65;;
54849;SDS011;47660;51.334;12.396;2023-04-03T07:07:51;0.35;;;0.30;;
54849;SDS011;47660;51.334;12.396;2023-04-03T07:10:16;5.47;;;0.70;;
54849;SDS011;47660;51.334;12.396;2023-04-03T07:12:42;0.30;;;0.30;;
54849;SDS011;47660;51.334;12.396;2023-04-03T07:15:08;3.25;;;0.75;;
54849;SDS011;47660;51.334;12.396;2023-04-03T07:17:34;0.93;;;0.38;;
54849;SDS011;47660;51.334;12.396;2023-04-03T07:20:01;1.25;;;0.60;;
54849;SDS011;47660;51.334;12.396;2023-04-03T07:22:26;3.25;;;0.55;;
54849;SDS011;47660;51.334;12.396;2023-04-03T07:24:54;1.42;;;0.47;;
54849;SDS011;47660;51.334;12.396;2023-04-03T07:27:20;1.35;;;0.50;;
54849;SDS011;47660;51.334;12.396;2023-04-03T07:29:45;0.50;;;0.30;;
54849;SDS011;47660;51.334;12.396;2023-04-03T07:32:13;5.82;;;0.30;;
54849;SDS011;47660;51.334;12.396;2023-04-03T07:34:38;1.10;;;0.40;;
54849;SDS011;47660;51.334;12.396;2023-04-03T07:37:04;0.63;;;0.52;;
54849;SDS011;47660;51.334;12.396;2023-04-03T07:39:29;3.05;;;0.70;;
54849;SDS011;47660;51.334;12.396;2023-04-03T07:41:55;0.20;;;0.20;;
54849;SDS011;47660;51.334;12.396;2023-04-03T07:44:23;0.95;;;0.60;;
54849;SDS011;47660;51.334;12.396;2023-04-03T07:46:49;2.05;;;0.85;;
54849;SDS011;47660;51.334;12.396;2023-04-03T07:49:15;1.15;;;0.82;;
54849;SDS011;47660;51.334;12.396;2023-04-03T07:51:44;0.50;;;0.28;;
54849;SDS011;47660;51.334;12.396;2023-04-03T07:54:10;2.65;;;0.68;;
54849;SDS011;47660;51.334;12.396;2023-04-03T07:56:35;1.65;;;0.60;;
54849;SDS011;47660;51.334;12.396;2023-04-03T07:59:01;3.70;;;0.60;;
54849;SDS011;47660;51.334;12.396;2023-04-03T08:01:26;0.65;;;0.50;;
54849;SDS011;47660;51.334;12.396;2023-04-03T08:03:57;1.25;;;0.50;;
54849;SDS011;47660;51.334;12.396;2023-04-03T08:06:26;0.20;;;0.20;;
54849;SDS011;47660;51.334;12.396;2023-04-03T08:08:51;1.92;;;0.60;;
54849;SDS011;47660;51.334;12.396;2023-04-03T08:11:17;0.10;;;0.10;;
54849;SDS011;47660;51.334;12.396;2023-04-03T08:13:45;1.02;;;0.52;;
54849;SDS011;47660;51.334;12.396;2023-04-03T08:16:18;2.72;;;0.47;;
54849;SDS011;47660;51.334;12.396;2023-04-03T08:18:46;2.33;;;0.32;;
54849;SDS011;47660;51.334;12.396;2023-04-03T08:21:12;0.57;;;0.50;;
54849;SDS011;47660;51.334;12.396;2023-04-03T08:23:39;0.52;;;0.50;;
54849;SDS011;47660;51.334;12.396;2023-04-03T08:26:11;2.00;;;0.50;;
54849;SDS011;47660;51.334;12.396;2023-04-03T08:28:40;0.63;;;0.63;;
54849;SDS011;47660;51.334;12.396;2023-04-03T08:31:07;5.88;;;0.73;;
54849;SDS011;47660;51.334;12.396;2023-04-03T08:33:36;2.08;;;0.43;;
54849;SDS011;47660;51.334;12.396;2023-04-03T08:36:04;0.63;;;0.20;;
54849;SDS011;47660;51.334;12.396;2023-04-03T08:38:32;1.52;;;0.57;;
54849;SDS011;47660;51.334;12.396;2023-04-03T08:41:04;0.77;;;0.40;;
54849;SDS011;47660;51.334;12.396;2023-04-03T08:46:06;2.60;;;1.00;;
54849;SDS011;47660;51.334;12.396;2023-04-03T08:48:41;2.33;;;0.90;;
54849;SDS011;47660;51.334;12.396;2023-04-03T08:51:14;3.50;;;0.45;;
54849;SDS011;47660;51.334;12.396;2023-04-03T08:54:06;0.98;;;0.40;;
54849;SDS011;47660;51.334;12.396;2023-04-03T08:56:39;1.02;;;0.88;;
54849;SDS011;47660;51.334;12.396;2023-04-03T08:59:09;0.80;;;0.32;;
54849;SDS011;47660;51.334;12.396;2023-04-03T09:01:39;1.45;;;0.50;;
54849;SDS011;47660;51.334;12.396;2023-04-03T09:04:12;0.52;;;0.30;;
54849;SDS011;47660;51.334;12.396;2023-04-03T09:06:41;1.00;;;0.57;;
54849;SDS011;47660;51.334;12.396;2023-04-03T09:14:28;0.22;;;0.22;;
54849;SDS011;47660;51.334;12.396;2023-04-03T09:24:47;0.40;;;0.40;;
54849;SDS011;47660;51.334;12.396;2023-04-03T09:27:21;2.47;;;0.70;;
54849;SDS011;47660;51.334;12.396;2023-04-03T09:29:46;2.67;;;0.85;;
54849;SDS011;47660;51.334;12.396;2023-04-03T09:32:32;8.90;;;3.00;;
54849;SDS011;47660;51.334;12.396;2023-04-03T09:35:03;4.18;;;1.92;;
54849;SDS011;47660;51.334;12.396;2023-04-03T09:37:44;2.92;;;1.35;;
54849;SDS011;47660;51.334;12.396;2023-04-03T09:42:54;4.95;;;1.25;;
54849;SDS011;47660;51.334;12.396;2023-04-03T09:45:43;4.45;;;1.00;;
54849;SDS011;47660;51.334;12.396;2023-04-03T09:50:52;5.47;;;1.15;;
54849;SDS011;47660;51.334;12.396;2023-04-03T09:53:38;2.55;;;0.77;;
54849;SDS011;47660;51.334;12.396;2023-04-03T09:58:52;1.67;;;0.73;;
54849;SDS011;47660;51.334;12.396;2023-04-03T10:01:38;3.30;;;0.43;;
54849;SDS011;47660;51.334;12.396;2023-04-03T10:06:53;2.72;;;0.43;;
54849;SDS011;47660;51.334;12.396;2023-04-03T10:09:21;4.13;;;0.43;;
54849;SDS011;47660;51.334;12.396;2023-04-03T10:12:02;1.63;;;0.50;;
54849;SDS011;47660;51.334;12.396;2023-04-03T10:14:33;1.83;;;0.52;;
54849;SDS011;47660;51.334;12.396;2023-04-03T10:20:06;1.55;;;0.70;;
54849;SDS011;47660;51.334;12.396;2023-04-03T10:26:02;1.02;;;0.73;;
54849;SDS011;47660;51.334;12.396;2023-04-03T10:34:52;2.35;;;0.50;;
54849;SDS011;47660;51.334;12.396;2023-04-03T10:37:30;0.43;;;0.38;;
54849;SDS011;47660;51.334;12.396;2023-04-03T10:42:50;3.00;;;0.55;;
54849;SDS011;47660;51.334;12.396;2023-04-03T10:51:12;0.82;;;0.65;;
54849;SDS011;47660;51.334;12.396;2023-04-03T10:56:39;1.13;;;0.77;;
54849;SDS011;47660;51.334;12.396;2023-04-03T11:01:44;1.95;;;0.68;;
54849;SDS011;47660;51.334;12.396;2023-04-03T11:04:13;1.63;;;0.50;;
54849;SDS011;47660;51.334;12.396;2023-04-03T11:06:44;1.48;;;0.88;;
54849;SDS011;47660;51.334;12.396;2023-04-03T11:09:25;0.55;;;0.40;;
54849;SDS011;47660;51.334;12.396;2023-04-03T11:12:00;2.25;;;0.75;;
54849;SDS011;47660;51.334;12.396;2023-04-03T11:14:33;0.40;;;0.40;;
54849;SDS011;47660;51.334;12.396;2023-04-03T11:25:44;1.95;;;0.88;;
54849;SDS011;47660;51.334;12.396;2023-04-03T11:28:15;1.45;;;0.80;;
54849;SDS011;47660;51.334;12.396;2023-04-03T11:30:57;2.97;;;0.75;;
54849;SDS011;47660;51.334;12.396;2023-04-03T11:36:28;3.92;;;0.65;;
54849;SDS011;47660;51.334;12.396;2023-04-03T11:39:01;1.60;;;0.80;;
54849;SDS011;47660;51.334;12.396;2023-04-03T11:41:41;2.05;;;0.90;;
54849;SDS011;47660;51.334;12.396;2023-04-03T11:44:26;0.57;;;0.47;;
54849;SDS011;47660;51.334;12.396;2023-04-03T11:46:56;1.77;;;0.98;;
54849;SDS011;47660;51.334;12.396;2023-04-03T12:08:34;1.25;;;0.70;;
54849;SDS011;47660;51.334;12.396;2023-04-03T12:13:33;3.13;;;0.77;;
54849;SDS011;47660;51.334;12.396;2023-04-03T12:19:00;1.63;;;0.70;;
54849;SDS011;47660;51.334;12.396;2023-04-03T12:48:25;1.45;;;0.63;;
54849;SDS011;47660;51.334;12.396;2023-04-03T12:50:52;2.67;;;1.10;;
54849;SDS011;47660;51.334;12.396;2023-04-03T12:53:24;3.42;;;1.88;;
54849;SDS011;47660;51.334;12.396;2023-04-03T12:55:53;22.23;;;7.82;;
54849;SDS011;47660;51.334;12.396;2023-04-03T12:58:27;41.42;;;15.73;;
54849;SDS011;47660;51.334;12.396;2023-04-03T13:01:03;26.52;;;8.93;;
54849;SDS011;47660;51.334;12.396;2023-04-03T13:03:37;8.38;;;2.33;;
54849;SDS011;47660;51.334;12.396;2023-04-03T13:06:05;10.70;;;3.88;;
54849;SDS011;47660;51.334;12.396;2023-04-03T13:08:31;6.22;;;2.15;;
54849;SDS011;47660;51.334;12.396;2023-04-03T13:11:09;4.88;;;2.75;;
54849;SDS011;47660;51.334;12.396;2023-04-03T13:13:36;7.72;;;2.45;;
54849;SDS011;47660;51.334;12.396;2023-04-03T13:16:10;3.85;;;1.75;;
54849;SDS011;47660;51.334;12.396;2023-04-03T13:18:38;3.63;;;1.45;;
54849;SDS011;47660;51.334;12.396;2023-04-03T13:21:40;1.58;;;0.95;;
54849;SDS011;47660;51.334;12.396;2023-04-03T13:24:01;5.25;;;1.30;;
54849;SDS011;47660;51.334;12.396;2023-04-03T13:26:30;1.63;;;0.68;;
54849;SDS011;47660;51.334;12.396;2023-04-03T13:29:02;0.60;;;0.60;;
54849;SDS011;47660;51.334;12.396;2023-04-03T13:31:34;2.28;;;0.60;;
54849;SDS011;47660;51.334;12.396;2023-04-03T13:34:07;0.80;;;0.63;;
54849;SDS011;47660;51.334;12.396;2023-04-03T13:39:23;2.15;;;1.00;;
54849;SDS011;47660;51.334;12.396;2023-04-03T13:41:52;0.60;;;0.60;;
54849;SDS011;47660;51.334;12.396;2023-04-03T13:46:48;2.03;;;0.57;;
54849;SDS011;47660;51.334;12.396;2023-04-03T13:49:22;4.72;;;0.80;;
54849;SDS011;47660;51.334;12.396;2023-04-03T13:51:52;1.83;;;0.90;;
54849;SDS011;47660;51.334;12.396;2023-04-03T13:54:24;1.05;;;0.63;;
54849;SDS011;47660;51.334;12.396;2023-04-03T13:56:57;1.02;;;0.75;;
54849;SDS011;47660;51.334;12.396;2023-04-03T13:59:27;2.55;;;1.33;;
54849;SDS011;47660;51.334;12.396;2023-04-03T14:06:58;1.88;;;0.93;;
54849;SDS011;47660;51.334;12.396;2023-04-03T14:09:27;2.90;;;1.00;;
54849;SDS011;47660;51.334;12.396;2023-04-03T14:11:54;4.15;;;0.98;;
54849;SDS011;47660;51.334;12.396;2023-04-03T14:14:23;0.80;;;0.43;;
54849;SDS011;47660;51.334;12.396;2023-04-03T14:16:58;2.50;;;0.80;;
54849;SDS011;47660;51.334;12.396;2023-04-03T14:19:28;1.70;;;0.70;;
54849;SDS011;47660;51.334;12.396;2023-04-03T14:21:55;2.50;;;0.80;;
54849;SDS011;47660;51.334;12.396;2023-04-03T14:24:22;0.82;;;0.47;;
54849;SDS011;47660;51.334;12.396;2023-04-03T14:26:49;1.63;;;0.93;;
54849;SDS011;47660;51.334;12.396;2023-04-03T14:29:19;0.57;;;0.57;;
54849;SDS011;47660;51.334;12.396;2023-04-03T14:31:46;1.75;;;0.68;;
54849;SDS011;47660;51.334;12.396;2023-04-03T14:34:14;1.15;;;0.68;;
54849;SDS011;47660;51.334;12.396;2023-04-03T14:36:40;1.30;;;0.73;;
54849;SDS011;47660;51.334;12.396;2023-04-03T14:39:10;2.13;;;0.85;;
54849;SDS011;47660;51.334;12.396;2023-04-03T14:41:41;1.20;;;0.77;;
54849;SDS011;47660;51.334;12.396;2023-04-03T14:44:07;0.80;;;0.68;;
54849;SDS011;47660;51.334;12.396;2023-04-03T14:46:35;2.03;;;0.70;;
54849;SDS011;47660;51.334;12.396;2023-04-03T14:49:05;1.23;;;0.65;;
54849;SDS011;47660;51.334;12.396;2023-04-03T14:54:18;1.00;;;0.63;;
54849;SDS011;47660;51.334;12.396;2023-04-03T14:56:51;1.38;;;0.90;;
54849;SDS011;47660;51.334;12.396;2023-04-03T14:59:17;1.13;;;0.50;;
54849;SDS011;47660;51.334;12.396;2023-04-03T15:01:45;0.88;;;0.68;;
54849;SDS011;47660;51.334;12.396;2023-04-03T15:04:16;1.05;;;0.52;;
54849;SDS011;47660;51.334;12.396;2023-04-03T15:06:45;0.88;;;0.63;;
54849;SDS011;47660;51.334;12.396;2023-04-03T15:09:19;3.00;;;0.68;;
54849;SDS011;47660;51.334;12.396;2023-04-03T15:11:50;0.50;;;0.47;;
54849;SDS011;47660;51.334;12.396;2023-04-03T15:14:16;0.77;;;0.43;;
54849;SDS011;47660;51.334;12.396;2023-04-03T15:16:42;2.92;;;0.80;;
54849;SDS011;47660;51.334;12.396;2023-04-03T15:19:08;0.73;;;0.68;;
54849;SDS011;47660;51.334;12.396;2023-04-03T15:21:34;1.88;;;1.25;;
54849;SDS011;47660;51.334;12.396;2023-04-03T15:24:02;2.55;;;1.10;;
54849;SDS011;47660;51.334;12.396;2023-04-03T15:26:31;1.00;;;0.90;;
54849;SDS011;47660;51.334;12.396;2023-04-03T15:28:59;1.85;;;0.60;;
54849;SDS011;47660;51.334;12.396;2023-04-03T15:31:25;1.02;;;0.60;;
54849;SDS011;47660;51.334;12.396;2023-04-03T15:33:51;1.27;;;0.38;;
54849;SDS011;47660;51.334;12.396;2023-04-03T15:36:16;3.40;;;0.93;;
54849;SDS011;47660;51.334;12.396;2023-04-03T15:38:42;2.10;;;0.93;;
54849;SDS011;47660;51.334;12.396;2023-04-03T15:41:07;3.42;;;0.60;;
54849;SDS011;47660;51.334;12.396;2023-04-03T15:43:33;0.60;;;0.60;;
54849;SDS011;47660;51.334;12.396;2023-04-03T15:46:00;0.47;;;0.40;;
54849;SDS011;47660;51.334;12.396;2023-04-03T15:48:26;0.40;;;0.40;;
54849;SDS011;47660;51.334;12.396;2023-04-03T15:50:53;5.40;;;0.60;;
54849;SDS011;47660;51.334;12.396;2023-04-03T15:53:18;0.43;;;0.43;;
54849;SDS011;47660;51.334;12.396;2023-04-03T15:55:44;1.23;;;0.40;;
54849;SDS011;47660;51.334;12.396;2023-04-03T15:58:09;1.85;;;1.00;;
54849;SDS011;47660;51.334;12.396;2023-04-03T16:00:35;1.33;;;0.50;;
54849;SDS011;47660;51.334;12.396;2023-04-03T16:03:03;0.82;;;0.65;;
54849;SDS011;47660;51.334;12.396;2023-04-03T16:05:31;1.08;;;0.70;;
54849;SDS011;47660;51.334;12.396;2023-04-03T16:07:59;1.20;;;0.80;;
54849;SDS011;47660;51.334;12.396;2023-04-03T16:10:25;2.90;;;0.63;;
54849;SDS011;47660;51.334;12.396;2023-04-03T16:12:55;0.90;;;0.65;;
54849;SDS011;47660;51.334;12.396;2023-04-03T16:15:20;0.80;;;0.57;;
54849;SDS011;47660;51.334;12.396;2023-04-03T16:17:46;5.72;;;0.60;;
54849;SDS011;47660;51.334;12.396;2023-04-03T16:20:15;0.50;;;0.50;;
54849;SDS011;47660;51.334;12.396;2023-04-03T16:22:44;0.52;;;0.52;;
54849;SDS011;47660;51.334;12.396;2023-04-03T16:25:12;0.90;;;0.50;;
54849;SDS011;47660;51.334;12.396;2023-04-03T16:27:38;2.58;;;0.82;;
54849;SDS011;47660;51.334;12.396;2023-04-03T16:30:04;2.25;;;0.77;;
54849;SDS011;47660;51.334;12.396;2023-04-03T16:32:33;1.55;;;1.00;;
54849;SDS011;47660;51.334;12.396;2023-04-03T16:35:03;1.00;;;0.82;;
54849;SDS011;47660;51.334;12.396;2023-04-03T16:37:29;3.65;;;0.88;;
54849;SDS011;47660;51.334;12.396;2023-04-03T16:39:59;0.70;;;0.70;;
54849;SDS011;47660;51.334;12.396;2023-04-03T16:42:25;2.20;;;0.88;;
54849;SDS011;47660;51.334;12.396;2023-04-03T16:44:50;1.00;;;0.80;;
54849;SDS011;47660;51.334;12.396;2023-04-03T16:47:16;0.85;;;0.70;;
54849;SDS011;47660;51.334;12.396;2023-04-03T16:49:45;0.55;;;0.43;;
54849;SDS011;47660;51.334;12.396;2023-04-03T16:52:12;1.05;;;0.50;;
54849;SDS011;47660;51.334;12.396;2023-04-03T16:54:38;2.45;;;0.50;;
54849;SDS011;47660;51.334;12.396;2023-04-03T16:57:03;0.75;;;0.75;;